Terminal Aerodrome Forecast
Issued by NWS

Home | Current Version | Previous Version | Text Only | Print | Product List | Glossary On
Versions: 1 2 3 4 5 6 7 8 9 10 11 12 13 14 15 16 17 18 19 20 21 22 23 24 25 26 27 28 29
000
FTUS46 KSGX 011928 AAB
TAFSAN
TAF AMD
KSAN 011928Z 0119/0224 09010KT P6SM -RA SCT015 OVC060
      TEMPO 0119/0121 09012G19KT
     FM020200 VRB06KT P6SM VCSH FEW025 BKN060
     FM021300 29009KT P6SM VCSH FEW025 BKN060=

USA.gov is the U.S. government's official web portal to all federal, state and local government web resources and services.